sensor_id;sensor_type;location;lat;lon;timestamp;pressure;altitude;pressure_sealevel;temperature;humidity
13709;BME280;54933;51.908;7.730;2023-01-26T00:00:49;101828.38;;;21.56;57.95
13709;BME280;54933;51.908;7.730;2023-01-26T00:03:15;101821.09;;;21.57;57.93
13709;BME280;54933;51.908;7.730;2023-01-26T00:05:41;101823.81;;;21.57;58.11
13709;BME280;54933;51.908;7.730;2023-01-26T00:08:06;101832.72;;;21.57;57.93
13709;BME280;54933;51.908;7.730;2023-01-26T00:10:34;101830.22;;;21.55;57.76
13709;BME280;54933;51.908;7.730;2023-01-26T00:13:00;101823.81;;;21.57;58.22
13709;BME280;54933;51.908;7.730;2023-01-26T00:15:25;101825.84;;;21.54;57.80
13709;BME280;54933;51.908;7.730;2023-01-26T00:17:51;101814.00;;;21.55;57.83
13709;BME280;54933;51.908;7.730;2023-01-26T00:20:16;101817.53;;;21.56;57.92
13709;BME280;54933;51.908;7.730;2023-01-26T00:22:42;101815.03;;;21.54;58.05
13709;BME280;54933;51.908;7.730;2023-01-26T00:25:08;101822.09;;;21.55;57.94
13709;BME280;54933;51.908;7.730;2023-01-26T00:27:33;101820.44;;;21.54;57.95
13709;BME280;54933;51.908;7.730;2023-01-26T00:29:59;101804.22;;;21.54;57.85
13709;BME280;54933;51.908;7.730;2023-01-26T00:32:24;101798.81;;;21.54;57.77
13709;BME280;54933;51.908;7.730;2023-01-26T00:34:49;101790.69;;;21.54;58.05
13709;BME280;54933;51.908;7.730;2023-01-26T00:37:14;101793.41;;;21.54;57.97
13709;BME280;54933;51.908;7.730;2023-01-26T00:39:40;101799.84;;;21.53;57.92
13709;BME280;54933;51.908;7.730;2023-01-26T00:42:05;101802.56;;;21.53;57.90
13709;BME280;54933;51.908;7.730;2023-01-26T00:44:30;101796.31;;;21.53;58.07
13709;BME280;54933;51.908;7.730;2023-01-26T00:46:55;101787.34;;;21.52;57.89
13709;BME280;54933;51.908;7.730;2023-01-26T00:49:21;101782.78;;;21.53;57.74
13709;BME280;54933;51.908;7.730;2023-01-26T00:51:46;101783.63;;;21.53;58.13
13709;BME280;54933;51.908;7.730;2023-01-26T00:54:11;101801.72;;;21.53;58.03
13709;BME280;54933;51.908;7.730;2023-01-26T00:56:36;101797.16;;;21.53;57.96
13709;BME280;54933;51.908;7.730;2023-01-26T00:59:02;101780.94;;;21.53;58.09
13709;BME280;54933;51.908;7.730;2023-01-26T01:01:28;101771.13;;;21.52;58.02
13709;BME280;54933;51.908;7.730;2023-01-26T01:03:53;101785.50;;;21.53;58.02
13709;BME280;54933;51.908;7.730;2023-01-26T01:06:18;101790.06;;;21.52;58.23
13709;BME280;54933;51.908;7.730;2023-01-26T01:08:44;101784.63;;;21.52;58.07
13709;BME280;54933;51.908;7.730;2023-01-26T01:11:10;101772.16;;;21.51;57.78
13709;BME280;54933;51.908;7.730;2023-01-26T01:13:36;101782.97;;;21.51;57.98
13709;BME280;54933;51.908;7.730;2023-01-26T01:16:06;101773.81;;;21.52;57.90
13709;BME280;54933;51.908;7.730;2023-01-26T01:18:32;101771.13;;;21.52;57.86
13709;BME280;54933;51.908;7.730;2023-01-26T01:20:57;101772.16;;;21.51;58.04
13709;BME280;54933;51.908;7.730;2023-01-26T01:23:22;101777.56;;;21.51;58.01
13709;BME280;54933;51.908;7.730;2023-01-26T01:25:55;101771.13;;;21.52;58.02
13709;BME280;54933;51.908;7.730;2023-01-26T01:28:21;101777.56;;;21.51;57.90
13709;BME280;54933;51.908;7.730;2023-01-26T01:30:46;101777.56;;;21.51;58.02
13709;BME280;54933;51.908;7.730;2023-01-26T01:33:11;101777.56;;;21.51;57.92
13709;BME280;54933;51.908;7.730;2023-01-26T01:35:37;101776.72;;;21.51;57.83
13709;BME280;54933;51.908;7.730;2023-01-26T01:38:02;101763.22;;;21.51;58.02
13709;BME280;54933;51.908;7.730;2023-01-26T01:40:27;101772.16;;;21.51;58.10
13709;BME280;54933;51.908;7.730;2023-01-26T01:42:52;101770.28;;;21.52;57.81
13709;BME280;54933;51.908;7.730;2023-01-26T01:45:41;101758.66;;;21.51;58.04
13709;BME280;54933;51.908;7.730;2023-01-26T01:48:14;101766.75;;;21.51;57.90
13709;BME280;54933;51.908;7.730;2023-01-26T01:50:42;101748.84;;;21.50;57.83
13709;BME280;54933;51.908;7.730;2023-01-26T01:53:11;101758.00;;;21.49;57.51
13709;BME280;54933;51.908;7.730;2023-01-26T01:55:39;101751.53;;;21.50;57.95
13709;BME280;54933;51.908;7.730;2023-01-26T01:58:05;101751.53;;;21.50;57.98
13709;BME280;54933;51.908;7.730;2023-01-26T02:00:31;101748.84;;;21.50;57.98
13709;BME280;54933;51.908;7.730;2023-01-26T02:03:06;101746.13;;;21.50;58.09
13709;BME280;54933;51.908;7.730;2023-01-26T02:06:02;101738.03;;;21.50;58.00
13709;BME280;54933;51.908;7.730;2023-01-26T02:08:36;101737.22;;;21.50;57.95
13709;BME280;54933;51.908;7.730;2023-01-26T02:11:09;101730.94;;;21.49;57.96
13709;BME280;54933;51.908;7.730;2023-01-26T02:13:35;101730.09;;;21.49;57.90
13709;BME280;54933;51.908;7.730;2023-01-26T02:16:01;101732.81;;;21.49;57.83
13709;BME280;54933;51.908;7.730;2023-01-26T02:18:27;101731.78;;;21.50;57.95
13709;BME280;54933;51.908;7.730;2023-01-26T02:20:57;101736.38;;;21.49;57.82
13709;BME280;54933;51.908;7.730;2023-01-26T02:23:35;101730.09;;;21.49;57.83
13709;BME280;54933;51.908;7.730;2023-01-26T02:26:07;101730.09;;;21.49;57.80
13709;BME280;54933;51.908;7.730;2023-01-26T02:28:35;101729.28;;;21.48;57.84
13709;BME280;54933;51.908;7.730;2023-01-26T02:31:01;101730.94;;;21.49;57.85
13709;BME280;54933;51.908;7.730;2023-01-26T02:33:29;101727.41;;;21.49;57.94
13709;BME280;54933;51.908;7.730;2023-01-26T02:35:55;101723.88;;;21.48;57.92
13709;BME280;54933;51.908;7.730;2023-01-26T02:38:22;101725.53;;;21.49;58.02
13709;BME280;54933;51.908;7.730;2023-01-26T02:40:54;101725.53;;;21.49;57.89
13709;BME280;54933;51.908;7.730;2023-01-26T02:43:22;101724.69;;;21.49;58.06
13709;BME280;54933;51.908;7.730;2023-01-26T02:45:48;101735.50;;;21.49;57.79
13709;BME280;54933;51.908;7.730;2023-01-26T02:48:13;101730.94;;;21.49;58.10
13709;BME280;54933;51.908;7.730;2023-01-26T02:50:58;101730.09;;;21.49;57.95
13709;BME280;54933;51.908;7.730;2023-01-26T02:53:24;101723.88;;;21.48;57.84
13709;BME280;54933;51.908;7.730;2023-01-26T02:55:49;101719.28;;;21.49;57.79
13709;BME280;54933;51.908;7.730;2023-01-26T02:58:16;101714.94;;;21.48;57.93
13709;BME280;54933;51.908;7.730;2023-01-26T03:00:41;101714.09;;;21.47;57.66
13709;BME280;54933;51.908;7.730;2023-01-26T03:03:12;101722.84;;;21.49;57.97
13709;BME280;54933;51.908;7.730;2023-01-26T03:05:37;101721.19;;;21.48;57.74
13709;BME280;54933;51.908;7.730;2023-01-26T03:08:03;101712.22;;;21.48;57.84
13709;BME280;54933;51.908;7.730;2023-01-26T03:10:30;101712.22;;;21.48;57.70
13709;BME280;54933;51.908;7.730;2023-01-26T03:12:55;101705.97;;;21.47;57.78
13709;BME280;54933;51.908;7.730;2023-01-26T03:15:21;101716.78;;;21.47;57.70
13709;BME280;54933;51.908;7.730;2023-01-26T03:18:14;101708.66;;;21.47;57.99
13709;BME280;54933;51.908;7.730;2023-01-26T03:21:00;101714.94;;;21.48;57.78
13709;BME280;54933;51.908;7.730;2023-01-26T03:23:44;101711.38;;;21.47;57.99
13709;BME280;54933;51.908;7.730;2023-01-26T03:26:28;101709.72;;;21.46;57.98
13709;BME280;54933;51.908;7.730;2023-01-26T03:29:12;101705.16;;;21.47;57.74
13709;BME280;54933;51.908;7.730;2023-01-26T03:31:37;101705.16;;;21.47;57.71
13709;BME280;54933;51.908;7.730;2023-01-26T03:34:03;101701.59;;;21.46;58.15
13709;BME280;54933;51.908;7.730;2023-01-26T03:36:28;101704.31;;;21.46;57.90
13709;BME280;54933;51.908;7.730;2023-01-26T03:38:53;101704.31;;;21.46;57.94
13709;BME280;54933;51.908;7.730;2023-01-26T03:41:19;101701.59;;;21.46;57.72
13709;BME280;54933;51.908;7.730;2023-01-26T03:44:02;101702.63;;;21.45;57.98
13709;BME280;54933;51.908;7.730;2023-01-26T03:46:46;101705.16;;;21.47;57.77
13709;BME280;54933;51.908;7.730;2023-01-26T03:49:30;101704.31;;;21.46;57.67
13709;BME280;54933;51.908;7.730;2023-01-26T03:52:14;101705.31;;;21.45;57.80
13709;BME280;54933;51.908;7.730;2023-01-26T03:54:58;101697.22;;;21.45;57.74
13709;BME280;54933;51.908;7.730;2023-01-26T03:57:42;101695.56;;;21.44;57.85
13709;BME280;54933;51.908;7.730;2023-01-26T04:00:08;101696.41;;;21.45;57.90
13709;BME280;54933;51.908;7.730;2023-01-26T04:02:33;101697.22;;;21.45;57.89
13709;BME280;54933;51.908;7.730;2023-01-26T04:05:17;101694.50;;;21.45;57.98
13709;BME280;54933;51.908;7.730;2023-01-26T04:08:02;101690.16;;;21.44;58.22
13709;BME280;54933;51.908;7.730;2023-01-26T04:10:47;101682.03;;;21.44;57.82
13709;BME280;54933;51.908;7.730;2023-01-26T04:13:15;101693.69;;;21.45;57.79
13709;BME280;54933;51.908;7.730;2023-01-26T04:15:58;101689.28;;;21.44;57.75
13709;BME280;54933;51.908;7.730;2023-01-26T04:18:42;101685.78;;;21.43;57.89
13709;BME280;54933;51.908;7.730;2023-01-26T04:21:26;101695.56;;;21.44;57.77
13709;BME280;54933;51.908;7.730;2023-01-26T04:23:53;101689.28;;;21.44;57.89
13709;BME280;54933;51.908;7.730;2023-01-26T04:26:23;101686.59;;;21.44;57.75
13709;BME280;54933;51.908;7.730;2023-01-26T04:28:49;101688.47;;;21.43;57.89
13709;BME280;54933;51.908;7.730;2023-01-26T04:31:14;101691.19;;;21.43;57.89
13709;BME280;54933;51.908;7.730;2023-01-26T04:33:41;101689.28;;;21.44;57.88
13709;BME280;54933;51.908;7.730;2023-01-26T04:36:07;101688.47;;;21.43;57.92
13709;BME280;54933;51.908;7.730;2023-01-26T04:38:33;101687.44;;;21.44;57.75
13709;BME280;54933;51.908;7.730;2023-01-26T04:40:58;101682.03;;;21.44;57.96
13709;BME280;54933;51.908;7.730;2023-01-26T04:43:24;101677.66;;;21.43;57.82
13709;BME280;54933;51.908;7.730;2023-01-26T04:45:59;101678.47;;;21.44;57.87
13709;BME280;54933;51.908;7.730;2023-01-26T04:48:26;101683.06;;;21.43;57.97
13709;BME280;54933;51.908;7.730;2023-01-26T04:50:56;101690.16;;;21.44;57.91
13709;BME280;54933;51.908;7.730;2023-01-26T04:53:22;101691.19;;;21.43;58.09
13709;BME280;54933;51.908;7.730;2023-01-26T04:55:47;101688.47;;;21.43;58.13
13709;BME280;54933;51.908;7.730;2023-01-26T04:58:12;101685.78;;;21.43;57.76
13709;BME280;54933;51.908;7.730;2023-01-26T05:00:38;101688.47;;;21.43;57.90
13709;BME280;54933;51.908;7.730;2023-01-26T05:03:03;101684.72;;;21.44;58.06
13709;BME280;54933;51.908;7.730;2023-01-26T05:05:28;101686.41;;;21.45;57.90
13709;BME280;54933;51.908;7.730;2023-01-26T05:07:54;101680.19;;;21.45;58.00
13709;BME280;54933;51.908;7.730;2023-01-26T05:10:19;101676.44;;;21.46;58.00
13709;BME280;54933;51.908;7.730;2023-01-26T05:12:44;101675.56;;;21.45;58.16
13709;BME280;54933;51.908;7.730;2023-01-26T05:15:10;101677.47;;;21.45;57.92
13709;BME280;54933;51.908;7.730;2023-01-26T05:17:35;101677.28;;;21.46;58.14
13709;BME280;54933;51.908;7.730;2023-01-26T05:20:01;101669.16;;;21.46;58.26
13709;BME280;54933;51.908;7.730;2023-01-26T05:22:26;101671.88;;;21.46;58.03
13709;BME280;54933;51.908;7.730;2023-01-26T05:24:51;101669.16;;;21.46;58.12
13709;BME280;54933;51.908;7.730;2023-01-26T05:27:17;101671.00;;;21.46;58.32
13709;BME280;54933;51.908;7.730;2023-01-26T05:29:45;101670.16;;;21.45;58.07
13709;BME280;54933;51.908;7.730;2023-01-26T05:32:10;101676.63;;;21.44;58.10
13709;BME280;54933;51.908;7.730;2023-01-26T05:34:36;101682.03;;;21.44;58.07
13709;BME280;54933;51.908;7.730;2023-01-26T05:37:01;101684.72;;;21.44;58.30
13709;BME280;54933;51.908;7.730;2023-01-26T05:39:26;101684.72;;;21.44;57.83
13709;BME280;54933;51.908;7.730;2023-01-26T05:41:52;101690.16;;;21.44;58.27
13709;BME280;54933;51.908;7.730;2023-01-26T05:44:20;101686.41;;;21.45;58.47
13709;BME280;54933;51.908;7.730;2023-01-26T05:46:45;101688.47;;;21.43;58.44
13709;BME280;54933;51.908;7.730;2023-01-26T05:49:10;101694.72;;;21.44;58.16
13709;BME280;54933;51.908;7.730;2023-01-26T05:51:35;101692.00;;;21.44;58.13
13709;BME280;54933;51.908;7.730;2023-01-26T05:54:01;101689.28;;;21.44;57.92
13709;BME280;54933;51.908;7.730;2023-01-26T05:56:26;101683.06;;;21.43;58.70
13709;BME280;54933;51.908;7.730;2023-01-26T05:58:51;101681.38;;;21.42;57.75
13709;BME280;54933;51.908;7.730;2023-01-26T06:01:16;101688.47;;;21.43;58.40
13709;BME280;54933;51.908;7.730;2023-01-26T06:03:42;101684.94;;;21.43;58.19
13709;BME280;54933;51.908;7.730;2023-01-26T06:06:07;101675.97;;;21.42;58.35
13709;BME280;54933;51.908;7.730;2023-01-26T06:08:32;101682.22;;;21.43;58.50
13709;BME280;54933;51.908;7.730;2023-01-26T06:10:58;101673.28;;;21.42;58.35
13709;BME280;54933;51.908;7.730;2023-01-26T06:13:24;101675.97;;;21.42;58.45
13709;BME280;54933;51.908;7.730;2023-01-26T06:15:50;101675.97;;;21.42;58.43
13709;BME280;54933;51.908;7.730;2023-01-26T06:18:15;101681.38;;;21.42;58.50
13709;BME280;54933;51.908;7.730;2023-01-26T06:20:40;101675.16;;;21.42;58.70
13709;BME280;54933;51.908;7.730;2023-01-26T06:23:06;101684.50;;;21.39;58.73
13709;BME280;54933;51.908;7.730;2023-01-26T06:25:36;101669.06;;;21.33;56.91
13709;BME280;54933;51.908;7.730;2023-01-26T06:28:02;101675.13;;;21.35;56.95
13709;BME280;54933;51.908;7.730;2023-01-26T06:30:28;101680.13;;;21.38;57.23
13709;BME280;54933;51.908;7.730;2023-01-26T06:32:53;101684.50;;;21.39;57.64
13709;BME280;54933;51.908;7.730;2023-01-26T06:35:18;101685.34;;;21.40;58.13
13709;BME280;54933;51.908;7.730;2023-01-26T06:37:47;101687.19;;;21.39;58.02
13709;BME280;54933;51.908;7.730;2023-01-26T06:40:12;101686.34;;;21.39;58.47
13709;BME280;54933;51.908;7.730;2023-01-26T06:42:37;101688.25;;;21.38;58.57
13709;BME280;54933;51.908;7.730;2023-01-26T06:45:03;101685.53;;;21.38;58.61
13709;BME280;54933;51.908;7.730;2023-01-26T06:47:28;101685.53;;;21.38;58.95
13709;BME280;54933;51.908;7.730;2023-01-26T06:49:53;101689.06;;;21.39;59.04
13709;BME280;54933;51.908;7.730;2023-01-26T06:52:29;101685.53;;;21.38;59.11
13709;BME280;54933;51.908;7.730;2023-01-26T06:54:57;101682.84;;;21.38;59.10
13709;BME280;54933;51.908;7.730;2023-01-26T06:57:23;101687.19;;;21.39;59.26
13709;BME280;54933;51.908;7.730;2023-01-26T06:59:48;101687.19;;;21.39;59.44
13709;BME280;54933;51.908;7.730;2023-01-26T07:02:19;101685.34;;;21.40;59.45
13709;BME280;54933;51.908;7.730;2023-01-26T07:04:45;101681.78;;;21.39;59.33
13709;BME280;54933;51.908;7.730;2023-01-26T07:07:11;101681.78;;;21.39;59.58
13709;BME280;54933;51.908;7.730;2023-01-26T07:09:36;101680.94;;;21.39;59.58
13709;BME280;54933;51.908;7.730;2023-01-26T07:12:02;101680.78;;;21.40;59.64
13709;BME280;54933;51.908;7.730;2023-01-26T07:14:27;101681.78;;;21.39;59.78
13709;BME280;54933;51.908;7.730;2023-01-26T07:16:52;101677.22;;;21.40;59.64
13709;BME280;54933;51.908;7.730;2023-01-26T07:19:18;101681.59;;;21.41;59.78
13709;BME280;54933;51.908;7.730;2023-01-26T07:21:43;101678.06;;;21.40;60.08
13709;BME280;54933;51.908;7.730;2023-01-26T07:24:08;101678.06;;;21.40;59.87
13709;BME280;54933;51.908;7.730;2023-01-26T07:26:34;101678.88;;;21.41;59.85
13709;BME280;54933;51.908;7.730;2023-01-26T07:28:59;101678.06;;;21.40;59.74
13709;BME280;54933;51.908;7.730;2023-01-26T07:31:24;101683.47;;;21.40;59.74
13709;BME280;54933;51.908;7.730;2023-01-26T07:33:49;101684.28;;;21.41;59.87
13709;BME280;54933;51.908;7.730;2023-01-26T07:36:15;101688.88;;;21.40;59.89
13709;BME280;54933;51.908;7.730;2023-01-26T07:38:40;101688.88;;;21.40;59.80
13709;BME280;54933;51.908;7.730;2023-01-26T07:41:10;101686.19;;;21.40;60.07
13709;BME280;54933;51.908;7.730;2023-01-26T07:43:36;101688.88;;;21.40;59.87
13709;BME280;54933;51.908;7.730;2023-01-26T07:46:02;101693.44;;;21.40;59.96
13709;BME280;54933;51.908;7.730;2023-01-26T07:48:28;101692.41;;;21.41;59.88
13709;BME280;54933;51.908;7.730;2023-01-26T07:50:58;101697.00;;;21.40;59.85
13709;BME280;54933;51.908;7.730;2023-01-26T07:53:24;101697.00;;;21.40;59.81
13709;BME280;54933;51.908;7.730;2023-01-26T07:55:51;101695.94;;;21.41;59.92
13709;BME280;54933;51.908;7.730;2023-01-26T07:58:17;101710.31;;;21.42;60.24
13709;BME280;54933;51.908;7.730;2023-01-26T08:00:42;101699.50;;;21.42;59.84
13709;BME280;54933;51.908;7.730;2023-01-26T08:03:12;101695.28;;;21.12;59.51
13709;BME280;54933;51.908;7.730;2023-01-26T08:05:37;101691.09;;;21.30;57.04
13709;BME280;54933;51.908;7.730;2023-01-26T08:08:03;101704.22;;;21.33;57.09
13709;BME280;54933;51.908;7.730;2023-01-26T08:10:28;101703.16;;;21.34;57.86
13709;BME280;54933;51.908;7.730;2023-01-26T08:12:59;101702.97;;;21.36;58.17
13709;BME280;54933;51.908;7.730;2023-01-26T08:15:26;101704.66;;;21.37;58.33
13709;BME280;54933;51.908;7.730;2023-01-26T08:17:53;101714.63;;;21.36;58.45
13709;BME280;54933;51.908;7.730;2023-01-26T08:20:18;101716.28;;;21.37;58.69
13709;BME280;54933;51.908;7.730;2023-01-26T08:22:44;101710.88;;;21.37;58.72
13709;BME280;54933;51.908;7.730;2023-01-26T08:25:09;101710.88;;;21.37;58.92
13709;BME280;54933;51.908;7.730;2023-01-26T08:27:34;101711.72;;;21.38;58.63
13709;BME280;54933;51.908;7.730;2023-01-26T08:30:00;101709.88;;;21.38;58.99
13709;BME280;54933;51.908;7.730;2023-01-26T08:32:25;101706.31;;;21.38;58.77
13709;BME280;54933;51.908;7.730;2023-01-26T08:34:50;101704.47;;;21.38;58.82
13709;BME280;54933;51.908;7.730;2023-01-26T08:37:15;101699.06;;;21.38;59.06
13709;BME280;54933;51.908;7.730;2023-01-26T08:39:41;101703.41;;;21.39;59.06
13709;BME280;54933;51.908;7.730;2023-01-26T08:42:06;101707.97;;;21.39;58.70
13709;BME280;54933;51.908;7.730;2023-01-26T08:44:31;101706.97;;;21.40;59.04
13709;BME280;54933;51.908;7.730;2023-01-26T08:46:57;101708.81;;;21.39;58.88
13709;BME280;54933;51.908;7.730;2023-01-26T08:49:22;101710.50;;;21.40;58.95
13709;BME280;54933;51.908;7.730;2023-01-26T08:51:47;101699.69;;;21.40;59.20
13709;BME280;54933;51.908;7.730;2023-01-26T08:54:12;101705.09;;;21.40;58.83
13709;BME280;54933;51.908;7.730;2023-01-26T08:56:38;101701.34;;;21.41;58.90
13709;BME280;54933;51.908;7.730;2023-01-26T08:59:03;101706.75;;;21.41;59.06
13709;BME280;54933;51.908;7.730;2023-01-26T09:01:28;101717.59;;;21.41;58.87
13709;BME280;54933;51.908;7.730;2023-01-26T09:03:54;101726.75;;;21.40;58.83
13709;BME280;54933;51.908;7.730;2023-01-26T09:06:20;101730.06;;;21.42;58.81
13709;BME280;54933;51.908;7.730;2023-01-26T09:08:46;101725.69;;;21.41;59.07
13709;BME280;54933;51.908;7.730;2023-01-26T09:11:11;101726.53;;;21.42;58.86
13709;BME280;54933;51.908;7.730;2023-01-26T09:13:37;101731.75;;;21.43;58.62
13709;BME280;54933;51.908;7.730;2023-01-26T09:16:13;101731.75;;;21.43;58.71
13709;BME280;54933;51.908;7.730;2023-01-26T09:18:39;101737.16;;;21.43;58.73
13709;BME280;54933;51.908;7.730;2023-01-26T09:21:06;101726.34;;;21.43;58.70
13709;BME280;54933;51.908;7.730;2023-01-26T09:23:32;101721.75;;;21.44;58.75
13709;BME280;54933;51.908;7.730;2023-01-26T09:25:58;101719.88;;;21.44;58.75
13709;BME280;54933;51.908;7.730;2023-01-26T09:28:23;101710.72;;;21.45;58.67
13709;BME280;54933;51.908;7.730;2023-01-26T09:30:49;101717.84;;;21.46;59.15
13709;BME280;54933;51.908;7.730;2023-01-26T09:33:14;101721.53;;;21.45;58.83
13709;BME280;54933;51.908;7.730;2023-01-26T09:35:39;101715.13;;;21.46;58.86
13709;BME280;54933;51.908;7.730;2023-01-26T09:38:05;101715.97;;;21.47;58.81
13709;BME280;54933;51.908;7.730;2023-01-26T09:45:53;101720.13;;;21.49;58.88
13709;BME280;54933;51.908;7.730;2023-01-26T09:48:36;101729.28;;;21.48;58.88
13709;BME280;54933;51.908;7.730;2023-01-26T09:51:08;101727.41;;;21.49;58.78
13709;BME280;54933;51.908;7.730;2023-01-26T09:53:51;101722.00;;;21.49;58.96
13709;BME280;54933;51.908;7.730;2023-01-26T09:56:20;101718.47;;;21.48;58.77
13709;BME280;54933;51.908;7.730;2023-01-26T09:58:54;101713.88;;;21.49;58.72
13709;BME280;54933;51.908;7.730;2023-01-26T10:01:46;101723.88;;;21.48;58.74
13709;BME280;54933;51.908;7.730;2023-01-26T10:04:26;101713.88;;;21.49;58.77
13709;BME280;54933;51.908;7.730;2023-01-26T10:06:57;101715.78;;;21.48;59.05
13709;BME280;54933;51.908;7.730;2023-01-26T10:09:27;101713.06;;;21.48;58.73
13709;BME280;54933;51.908;7.730;2023-01-26T10:12:22;101712.22;;;21.48;58.98
13709;BME280;54933;51.908;7.730;2023-01-26T10:14:57;101706.81;;;21.48;58.73
13709;BME280;54933;51.908;7.730;2023-01-26T10:17:42;101710.97;;;21.50;58.86
13709;BME280;54933;51.908;7.730;2023-01-26T10:23:21;101697.25;;;21.52;58.93
13709;BME280;54933;51.908;7.730;2023-01-26T10:25:48;101691.03;;;21.51;58.89
13709;BME280;54933;51.908;7.730;2023-01-26T10:28:28;101696.44;;;21.51;58.71
13709;BME280;54933;51.908;7.730;2023-01-26T10:30:54;101686.44;;;21.52;58.94
13709;BME280;54933;51.908;7.730;2023-01-26T10:33:29;101681.88;;;21.52;59.09
13709;BME280;54933;51.908;7.730;2023-01-26T10:35:56;101686.44;;;21.52;58.89
13709;BME280;54933;51.908;7.730;2023-01-26T10:40:59;101692.69;;;21.52;58.95
13709;BME280;54933;51.908;7.730;2023-01-26T10:43:25;101684.59;;;21.52;58.59
13709;BME280;54933;51.908;7.730;2023-01-26T10:45:50;101691.84;;;21.52;58.96
13709;BME280;54933;51.908;7.730;2023-01-26T10:48:17;101690.00;;;21.52;58.89
13709;BME280;54933;51.908;7.730;2023-01-26T10:50:43;101690.00;;;21.52;59.13
13709;BME280;54933;51.908;7.730;2023-01-26T10:53:26;101685.63;;;21.51;58.69
13709;BME280;54933;51.908;7.730;2023-01-26T10:56:03;101684.59;;;21.52;58.51
13709;BME280;54933;51.908;7.730;2023-01-26T10:58:51;101687.28;;;21.52;58.65
13709;BME280;54933;51.908;7.730;2023-01-26T11:01:18;101685.63;;;21.51;58.59
13709;BME280;54933;51.908;7.730;2023-01-26T11:04:08;101681.88;;;21.52;58.92
13709;BME280;54933;51.908;7.730;2023-01-26T11:06:36;101678.16;;;21.53;58.90
13709;BME280;54933;51.908;7.730;2023-01-26T11:11:39;101679.16;;;21.52;58.58
13709;BME280;54933;51.908;7.730;2023-01-26T11:14:16;101681.88;;;21.52;58.60
13709;BME280;54933;51.908;7.730;2023-01-26T11:16:58;101677.31;;;21.53;58.71
13709;BME280;54933;51.908;7.730;2023-01-26T11:19:49;101676.47;;;21.52;58.48
13709;BME280;54933;51.908;7.730;2023-01-26T11:22:28;101673.75;;;21.52;58.81
13709;BME280;54933;51.908;7.730;2023-01-26T11:25:16;101679.16;;;21.52;58.37
13709;BME280;54933;51.908;7.730;2023-01-26T11:28:10;101670.22;;;21.52;58.62
13709;BME280;54933;51.908;7.730;2023-01-26T11:43:02;101678.56;;;21.57;58.85
13709;BME280;54933;51.908;7.730;2023-01-26T11:45:52;101675.88;;;21.57;58.82
13709;BME280;54933;51.908;7.730;2023-01-26T11:53:37;101676.50;;;21.59;59.47
13709;BME280;54933;51.908;7.730;2023-01-26T11:58:46;101668.19;;;21.61;60.39
13709;BME280;54933;51.908;7.730;2023-01-26T12:01:41;101658.03;;;21.63;60.39
13709;BME280;54933;51.908;7.730;2023-01-26T12:04:19;101649.91;;;21.63;60.60
13709;BME280;54933;51.908;7.730;2023-01-26T12:06:47;101644.50;;;21.63;61.00
13709;BME280;54933;51.908;7.730;2023-01-26T12:09:26;101641.78;;;21.63;60.83
13709;BME280;54933;51.908;7.730;2023-01-26T12:12:05;101636.38;;;21.63;61.14
13709;BME280;54933;51.908;7.730;2023-01-26T12:14:38;101634.72;;;21.62;60.99
13709;BME280;54933;51.908;7.730;2023-01-26T12:17:26;101630.97;;;21.63;61.09
13709;BME280;54933;51.908;7.730;2023-01-26T12:20:00;101636.38;;;21.63;61.18
13709;BME280;54933;51.908;7.730;2023-01-26T12:22:44;101626.41;;;21.63;61.16
13709;BME280;54933;51.908;7.730;2023-01-26T12:25:34;101623.69;;;21.63;60.79
13709;BME280;54933;51.908;7.730;2023-01-26T12:28:28;101617.66;;;21.61;60.89
13709;BME280;54933;51.908;7.730;2023-01-26T12:31:21;101607.69;;;21.62;60.88
13709;BME280;54933;51.908;7.730;2023-01-26T12:33:50;101604.97;;;21.62;60.77
13709;BME280;54933;51.908;7.730;2023-01-26T12:36:22;101603.28;;;21.61;60.76
13709;BME280;54933;51.908;7.730;2023-01-26T12:41:41;101604.97;;;21.62;60.65
13709;BME280;54933;51.908;7.730;2023-01-26T12:44:32;101598.72;;;21.61;60.37
13709;BME280;54933;51.908;7.730;2023-01-26T12:47:11;101594.16;;;21.62;60.50
13709;BME280;54933;51.908;7.730;2023-01-26T12:49:47;101599.56;;;21.62;60.22
13709;BME280;54933;51.908;7.730;2023-01-26T12:52:21;101599.56;;;21.62;60.26
13709;BME280;54933;51.908;7.730;2023-01-26T12:54:56;101594.97;;;21.62;60.46
13709;BME280;54933;51.908;7.730;2023-01-26T12:57:28;101588.75;;;21.62;60.12
13709;BME280;54933;51.908;7.730;2023-01-26T13:00:06;101601.22;;;21.63;60.20
13709;BME280;54933;51.908;7.730;2023-01-26T13:02:44;101595.81;;;21.63;60.00
13709;BME280;54933;51.908;7.730;2023-01-26T13:05:23;101596.66;;;21.63;60.15
13709;BME280;54933;51.908;7.730;2023-01-26T13:07:49;101596.66;;;21.63;60.09
13709;BME280;54933;51.908;7.730;2023-01-26T13:13:01;101588.78;;;21.68;60.17
13709;BME280;54933;51.908;7.730;2023-01-26T13:15:45;101590.63;;;21.68;59.91
13709;BME280;54933;51.908;7.730;2023-01-26T13:18:15;101587.09;;;21.67;59.99
13709;BME280;54933;51.908;7.730;2023-01-26T13:20:46;101590.63;;;21.68;59.98
13709;BME280;54933;51.908;7.730;2023-01-26T13:26:15;101582.53;;;21.68;60.00
13709;BME280;54933;51.908;7.730;2023-01-26T13:28:41;101587.09;;;21.67;59.83
13709;BME280;54933;51.908;7.730;2023-01-26T13:31:08;101583.56;;;21.67;59.65
13709;BME280;54933;51.908;7.730;2023-01-26T13:33:33;101580.03;;;21.66;59.79
13709;BME280;54933;51.908;7.730;2023-01-26T13:36:02;101574.41;;;21.68;59.74
13709;BME280;54933;51.908;7.730;2023-01-26T13:38:57;101581.69;;;21.67;59.72
13709;BME280;54933;51.908;7.730;2023-01-26T13:41:24;101583.56;;;21.67;59.62
13709;BME280;54933;51.908;7.730;2023-01-26T13:43:52;101581.69;;;21.67;59.76
13709;BME280;54933;51.908;7.730;2023-01-26T13:46:27;101587.09;;;21.67;59.45